createdAt,value
2019-05-10T00:00:38.124Z,0
2019-05-10T00:01:38.691Z,0
2019-05-10T00:02:39.271Z,0
2019-05-10T00:03:39.843Z,0
2019-05-10T00:04:40.421Z,0
2019-05-10T00:05:40.991Z,0
2019-05-10T00:06:41.579Z,0
2019-05-10T00:07:42.128Z,0
2019-05-10T00:08:42.696Z,0
2019-05-10T00:09:43.263Z,0
2019-05-10T00:10:43.830Z,0
2019-05-10T00:11:44.399Z,0
2019-05-10T00:12:44.968Z,0
2019-05-10T00:13:45.536Z,0
2019-05-10T00:14:46.104Z,0
2019-05-10T00:15:46.673Z,0
2019-05-10T00:16:47.241Z,0
2019-05-10T00:17:47.810Z,0
2019-05-10T00:18:48.391Z,0
2019-05-10T00:19:48.959Z,0
2019-05-10T00:20:49.541Z,0
2019-05-10T00:21:50.107Z,0
2019-05-10T00:22:50.690Z,0
2019-05-10T00:23:51.260Z,0
2019-05-10T00:25:02.984Z,0
2019-05-10T00:25:52.405Z,0
2019-05-10T00:26:52.973Z,0
2019-05-10T00:27:53.542Z,0
2019-05-10T00:28:54.111Z,0
2019-05-10T00:29:54.680Z,0
2019-05-10T00:30:55.260Z,0
2019-05-10T00:31:55.839Z,0
2019-05-10T00:32:56.409Z,0
2019-05-10T00:33:56.978Z,0
2019-05-10T00:34:57.547Z,0
2019-05-10T00:35:58.117Z,0
2019-05-10T00:36:58.696Z,0
2019-05-10T00:37:59.267Z,0
2019-05-10T00:38:59.836Z,0
2019-05-10T00:40:00.408Z,0
2019-05-10T00:41:00.976Z,0
2019-05-10T00:42:01.552Z,0
2019-05-10T00:43:02.123Z,0
2019-05-10T00:44:02.762Z,0
2019-05-10T00:45:03.277Z,0
2019-05-10T00:46:03.858Z,0
2019-05-10T00:47:04.434Z,0
2019-05-10T00:48:05.013Z,0
2019-05-10T00:49:05.583Z,0
2019-05-10T00:50:06.152Z,0
2019-05-10T00:51:06.722Z,0
2019-05-10T00:52:07.292Z,0
2019-05-10T00:53:07.865Z,0
2019-05-10T00:54:08.449Z,0
2019-05-10T00:55:18.343Z,0
2019-05-10T00:56:10.574Z,0
2019-05-10T00:57:11.141Z,0
2019-05-10T00:58:11.713Z,0
2019-05-10T00:59:12.282Z,0
2019-05-10T01:00:12.852Z,0
2019-05-10T01:01:13.420Z,0
2019-05-10T01:02:14.000Z,0
2019-05-10T01:03:14.572Z,0
2019-05-10T01:04:15.140Z,0
2019-05-10T01:05:15.708Z,0
2019-05-10T01:06:16.277Z,0
2019-05-10T01:07:16.857Z,0
2019-05-10T01:08:17.425Z,0
2019-05-10T01:09:18.062Z,0
2019-05-10T01:10:18.568Z,0
2019-05-10T01:11:19.136Z,0
2019-05-10T01:12:19.706Z,0
2019-05-10T01:13:20.279Z,0
2019-05-10T01:14:20.855Z,0
2019-05-10T01:15:21.422Z,0
2019-05-10T01:16:21.990Z,0
2019-05-10T01:17:22.559Z,0
2019-05-10T01:18:23.127Z,0
2019-05-10T01:19:23.707Z,0
2019-05-10T01:20:24.276Z,0
2019-05-10T01:21:24.847Z,0
2019-05-10T01:22:25.419Z,0
2019-05-10T01:23:25.988Z,0
2019-05-10T01:24:26.554Z,0
2019-05-10T01:25:35.434Z,0
2019-05-10T01:26:27.699Z,0
2019-05-10T01:27:28.266Z,0
2019-05-10T01:28:28.835Z,0
2019-05-10T01:29:29.414Z,0
2019-05-10T01:30:29.982Z,0
2019-05-10T01:31:30.551Z,0
2019-05-10T01:32:31.122Z,0
2019-05-10T01:33:31.691Z,0
2019-05-10T01:34:32.264Z,0
2019-05-10T01:35:32.840Z,0
2019-05-10T01:36:33.410Z,0
2019-05-10T01:37:33.981Z,0
2019-05-10T01:38:34.549Z,0
2019-05-10T01:39:35.133Z,0
2019-05-10T01:40:35.740Z,0
2019-05-10T01:41:36.287Z,0
2019-05-10T01:42:36.856Z,0
2019-05-10T01:43:37.424Z,0
2019-05-10T01:44:37.993Z,0
2019-05-10T01:45:38.561Z,0
2019-05-10T01:46:39.130Z,0
2019-05-10T01:47:39.701Z,0
2019-05-10T01:48:40.269Z,0
2019-05-10T01:49:40.848Z,0
2019-05-10T01:50:41.416Z,0
2019-05-10T01:51:41.985Z,0
2019-05-10T01:52:42.551Z,0
2019-05-10T01:53:46.969Z,0
2019-05-10T01:54:47.541Z,0
2019-05-10T01:55:52.164Z,0
2019-05-10T01:56:49.670Z,0
2019-05-10T01:57:50.288Z,0
2019-05-10T01:58:50.808Z,0
2019-05-10T01:59:51.387Z,0
2019-05-10T02:00:51.956Z,0
2019-05-10T02:01:52.526Z,0
2019-05-10T02:02:53.095Z,0
2019-05-10T02:03:53.662Z,0
2019-05-10T02:04:54.231Z,0
2019-05-10T02:05:54.801Z,0
2019-05-10T02:06:55.367Z,0
2019-05-10T02:07:55.935Z,0
2019-05-10T02:08:56.520Z,0
2019-05-10T02:09:57.084Z,0
2019-05-10T02:10:57.652Z,0
2019-05-10T02:11:58.222Z,0
2019-05-10T02:12:58.791Z,0
2019-05-10T02:13:59.359Z,0
2019-05-10T02:14:59.941Z,0
2019-05-10T02:16:00.497Z,0
2019-05-10T02:17:01.070Z,0
2019-05-10T02:18:01.633Z,0
2019-05-10T02:19:02.205Z,0
2019-05-10T02:20:02.777Z,0
2019-05-10T02:21:03.340Z,0
2019-05-10T02:22:03.909Z,0
2019-05-10T02:23:04.478Z,0
2019-05-10T02:24:05.045Z,0
2019-05-10T02:25:05.614Z,0
2019-05-10T02:26:09.465Z,0
2019-05-10T02:27:07.742Z,0
2019-05-10T02:28:08.312Z,0
2019-05-10T02:29:08.880Z,0
2019-05-10T02:30:09.449Z,0
2019-05-10T02:31:10.018Z,0
2019-05-10T02:32:10.586Z,0
2019-05-10T02:33:11.164Z,0
2019-05-10T02:34:11.733Z,0
2019-05-10T02:35:12.301Z,0
2019-05-10T02:36:12.869Z,0
2019-05-10T02:37:13.436Z,0
2019-05-10T02:38:14.004Z,0
2019-05-10T02:39:14.570Z,0
2019-05-10T02:40:15.138Z,0
2019-05-10T02:41:15.713Z,0
2019-05-10T02:42:16.272Z,0
2019-05-10T02:43:16.840Z,0
2019-05-10T02:44:17.409Z,0
2019-05-10T02:45:17.974Z,0
2019-05-10T02:46:18.541Z,0
2019-05-10T02:47:19.110Z,0
2019-05-10T02:48:19.678Z,0
2019-05-10T02:49:20.248Z,0
2019-05-10T02:50:20.832Z,0
2019-05-10T02:51:21.408Z,0
2019-05-10T02:52:21.962Z,0
2019-05-10T02:53:22.532Z,0
2019-05-10T02:54:23.103Z,0
2019-05-10T02:55:23.670Z,0
2019-05-10T02:56:30.653Z,0
2019-05-10T02:57:25.801Z,0
2019-05-10T02:58:26.378Z,0
2019-05-10T02:59:26.947Z,0
2019-05-10T03:00:27.515Z,0
2019-05-10T03:01:28.083Z,0
2019-05-10T03:02:28.653Z,0
2019-05-10T03:03:29.224Z,0
2019-05-10T03:04:29.789Z,0
2019-05-10T03:05:30.358Z,0
2019-05-10T03:06:30.930Z,0
2019-05-10T03:07:31.502Z,0
2019-05-10T03:08:32.327Z,0
2019-05-10T03:09:32.889Z,0
2019-05-10T03:10:33.656Z,0
2019-05-10T03:11:34.238Z,0
2019-05-10T03:12:34.795Z,0
2019-05-10T03:13:35.365Z,0
2019-05-10T03:14:35.932Z,0
2019-05-10T03:15:36.501Z,0
2019-05-10T03:16:37.072Z,0
2019-05-10T03:17:37.648Z,0
2019-05-10T03:18:38.214Z,0
2019-05-10T03:19:38.784Z,0
2019-05-10T03:20:39.473Z,0
2019-05-10T03:21:39.924Z,0
2019-05-10T06:08:24.680Z,0
2019-05-10T06:09:23.674Z,0
2019-05-10T06:10:24.249Z,0
2019-05-10T06:11:29.839Z,0
2019-05-10T06:12:26.380Z,0
2019-05-10T06:13:30.529Z,0
2019-05-10T06:14:27.534Z,0
2019-05-10T06:15:29.202Z,0
2019-05-10T06:16:29.669Z,0
2019-05-10T06:17:31.715Z,0
2019-05-10T06:18:31.800Z,0
2019-05-10T06:19:32.372Z,0
2019-05-10T06:20:38.310Z,0
2019-05-10T06:21:34.507Z,5
2019-05-10T06:22:38.334Z,5
2019-05-10T06:23:36.917Z,5
2019-05-10T06:24:37.452Z,5
2019-05-10T06:25:40.057Z,5
2019-05-10T06:26:39.585Z,5
2019-05-10T06:27:41.593Z,5
2019-05-10T06:28:58.196Z,5
2019-05-10T06:29:43.220Z,5
2019-05-10T06:30:43.818Z,5
2019-05-10T06:31:44.390Z,10
2019-05-10T06:32:44.959Z,10
2019-05-10T06:33:46.879Z,10
2019-05-10T06:34:47.096Z,10
2019-05-10T06:35:47.668Z,10
2019-05-10T06:36:48.239Z,10
2019-05-10T06:37:48.812Z,10
2019-05-10T06:38:49.384Z,10
2019-05-10T06:39:49.958Z,10
2019-05-10T06:40:50.536Z,10
2019-05-10T06:41:56.029Z,10
2019-05-10T06:42:52.678Z,10
2019-05-10T06:43:54.126Z,10
2019-05-10T06:44:54.672Z,10
2019-05-10T06:45:55.854Z,10
2019-05-10T06:46:55.799Z,15
2019-05-10T06:47:56.371Z,15
2019-05-10T06:49:07.659Z,15
2019-05-10T06:49:58.517Z,15
2019-05-10T06:51:03.013Z,10
2019-05-10T06:52:00.655Z,10
2019-05-10T06:53:07.795Z,10
2019-05-10T06:54:02.791Z,10
2019-05-10T06:55:04.066Z,10
2019-05-10T06:56:03.940Z,10
2019-05-10T06:57:04.517Z,10
2019-05-10T06:58:05.085Z,10
2019-05-10T06:59:13.452Z,15
2019-05-10T07:00:08.115Z,15
2019-05-10T07:01:07.800Z,15
2019-05-10T07:02:08.383Z,15
2019-05-10T07:03:08.954Z,15
2019-05-10T07:04:09.524Z,15
2019-05-10T07:05:10.108Z,15
2019-05-10T07:06:10.679Z,15
2019-05-10T07:07:22.124Z,15
2019-05-10T07:08:17.547Z,15
2019-05-10T07:09:13.402Z,15
2019-05-10T07:10:19.092Z,15
2019-05-10T07:11:15.540Z,15
2019-05-10T07:12:18.441Z,15
2019-05-10T07:13:17.677Z,15
2019-05-10T07:14:18.250Z,15
2019-05-10T07:15:18.822Z,15
2019-05-10T07:16:24.232Z,15
2019-05-10T07:17:20.961Z,15
2019-05-10T07:18:22.808Z,20
2019-05-10T07:19:22.117Z,20
2019-05-10T07:20:23.690Z,25
2019-05-10T07:21:24.265Z,25
2019-05-10T07:22:26.976Z,20
2019-05-10T07:23:29.888Z,20
2019-05-10T07:24:27.967Z,15
2019-05-10T07:25:28.561Z,15
2019-05-10T07:26:29.113Z,15
2019-05-10T07:27:29.688Z,15
2019-05-10T07:28:30.258Z,15
2019-05-10T07:29:41.884Z,15
2019-05-10T07:30:32.396Z,15
2019-05-10T07:31:32.978Z,15
2019-05-10T07:32:33.554Z,15
2019-05-10T07:33:37.191Z,15
2019-05-10T07:34:35.696Z,15
2019-05-10T07:35:37.169Z,15
2019-05-10T07:36:37.830Z,15
2019-05-10T07:37:38.401Z,15
2019-05-10T07:38:38.973Z,15
2019-05-10T07:39:39.553Z,15
2019-05-10T07:40:40.121Z,20
2019-05-10T07:41:40.710Z,20
2019-05-10T07:42:45.507Z,20
2019-05-10T07:43:42.864Z,20
2019-05-10T07:44:46.883Z,15
2019-05-10T07:45:45.019Z,15
2019-05-10T07:46:53.257Z,15
2019-05-10T07:47:47.070Z,15
2019-05-10T07:48:53.534Z,15
2019-05-10T07:49:48.222Z,10
2019-05-10T07:50:51.737Z,10
2019-05-10T07:51:50.369Z,10
2019-05-10T07:52:50.936Z,10
2019-05-10T07:53:51.513Z,5
2019-05-10T07:54:52.092Z,5
2019-05-10T07:55:52.663Z,5
2019-05-10T07:56:53.234Z,5
2019-05-10T07:57:59.007Z,5
2019-05-10T07:58:55.371Z,5
2019-05-10T07:59:57.661Z,5
2019-05-10T08:00:57.509Z,5
2019-05-10T08:01:58.094Z,5
2019-05-10T08:03:11.842Z,5
2019-05-10T08:04:00.227Z,5
2019-05-10T08:05:05.069Z,5
2019-05-10T08:06:02.176Z,5
2019-05-10T08:07:02.778Z,5
2019-05-10T08:08:03.334Z,5
2019-05-10T08:09:06.481Z,5
2019-05-10T08:10:05.473Z,5
2019-05-10T08:11:08.408Z,5
2019-05-10T08:12:06.625Z,5
2019-05-10T08:13:08.437Z,5
2019-05-10T08:14:11.251Z,10
2019-05-10T08:15:10.343Z,10
2019-05-10T08:16:18.874Z,10
2019-05-10T08:17:12.490Z,10
2019-05-10T08:18:15.420Z,10
2019-05-10T08:19:14.629Z,10
2019-05-10T08:20:29.689Z,10
2019-05-10T08:21:22.238Z,10
2019-05-10T08:22:18.238Z,10
2019-05-10T08:23:23.751Z,10
2019-05-10T08:24:19.389Z,10
2019-05-10T08:25:22.467Z,10
2019-05-10T08:26:24.522Z,10
2019-05-10T08:27:22.984Z,10
2019-05-10T08:28:22.943Z,15
2019-05-10T08:29:23.531Z,15
2019-05-10T08:30:28.967Z,15
2019-05-10T08:31:26.427Z,15
2019-05-10T08:32:29.933Z,15
2019-05-10T08:33:28.796Z,15
2019-05-10T08:34:35.603Z,15
2019-05-10T08:35:32.768Z,15
2019-05-10T08:36:37.346Z,15
2019-05-10T08:37:37.732Z,15
2019-05-10T08:38:39.738Z,15
2019-05-10T08:39:45.139Z,15
2019-05-10T08:40:38.213Z,15
2019-05-10T08:41:38.782Z,15
2019-05-10T08:42:47.870Z,15
2019-05-10T08:43:40.796Z,15
2019-05-10T08:44:42.716Z,15
2019-05-10T08:45:45.171Z,15
2019-05-10T08:46:44.640Z,15
2019-05-10T08:47:45.211Z,15
2019-05-10T08:48:50.442Z,15
2019-05-10T08:50:08.006Z,20
2019-05-10T08:50:54.323Z,20
2019-05-10T08:51:52.256Z,20
2019-05-10T08:52:56.283Z,25
2019-05-10T08:53:58.027Z,20
2019-05-10T08:54:55.321Z,20
2019-05-10T08:55:58.804Z,20
2019-05-10T08:57:01.317Z,20
2019-05-10T08:57:58.896Z,25
2019-05-10T08:58:59.468Z,25
2019-05-10T09:00:06.562Z,25
2019-05-10T09:01:16.370Z,25
2019-05-10T09:02:03.209Z,25
2019-05-10T09:03:09.568Z,25
2019-05-10T09:04:07.097Z,25
2019-05-10T09:05:06.882Z,25
2019-05-10T09:06:12.011Z,30
2019-05-10T09:07:09.024Z,30
2019-05-10T09:08:13.642Z,30
2019-05-10T09:09:12.586Z,25
2019-05-10T09:10:12.857Z,25
2019-05-10T09:11:13.310Z,25
2019-05-10T09:12:13.887Z,20
2019-05-10T09:13:14.467Z,20
2019-05-10T09:14:20.041Z,20
2019-05-10T09:15:16.609Z,20
2019-05-10T09:16:17.182Z,20
2019-05-10T09:17:23.737Z,20
2019-05-10T09:18:18.333Z,20
2019-05-10T09:19:24.265Z,20
2019-05-10T09:20:25.964Z,20
2019-05-10T09:21:22.424Z,20
2019-05-10T09:22:23.998Z,20
2019-05-10T09:23:24.552Z,20
2019-05-10T09:24:25.126Z,20
2019-05-10T09:25:29.530Z,20
2019-05-10T09:26:26.280Z,20
2019-05-10T09:27:29.061Z,20
2019-05-10T09:28:27.442Z,25
2019-05-10T09:29:35.169Z,20
2019-05-10T09:30:32.009Z,20
2019-05-10T09:31:32.689Z,20
2019-05-10T09:32:33.344Z,20
2019-05-10T09:33:33.975Z,15
2019-05-10T09:34:34.549Z,15
2019-05-10T09:35:38.910Z,15
2019-05-10T09:36:36.687Z,15
2019-05-10T09:37:37.260Z,15
2019-05-10T09:38:39.653Z,15
2019-05-10T09:39:39.401Z,15
2019-05-10T09:40:50.771Z,15
2019-05-10T09:41:42.193Z,15
2019-05-10T09:42:43.769Z,15
2019-05-10T09:43:48.742Z,15
2019-05-10T09:44:46.045Z,10
2019-05-10T09:45:46.547Z,10
2019-05-10T09:46:47.122Z,10
2019-05-10T09:47:47.697Z,10
2019-05-10T09:48:48.272Z,10
2019-05-10T09:49:54.119Z,10
2019-05-10T09:50:49.467Z,10
2019-05-10T09:51:50.005Z,10
2019-05-10T09:52:50.580Z,15
2019-05-10T09:53:51.153Z,15
2019-05-10T09:54:51.723Z,15
2019-05-10T09:56:01.677Z,15
2019-05-10T09:56:53.876Z,15
2019-05-10T09:57:54.448Z,15
2019-05-10T09:58:55.022Z,15
2019-05-10T09:59:57.211Z,15
2019-05-10T10:01:12.821Z,15
2019-05-10T10:01:57.745Z,15
2019-05-10T10:03:01.625Z,15
2019-05-10T10:04:01.996Z,15
2019-05-10T10:05:01.461Z,15
2019-05-10T10:06:07.568Z,15
2019-05-10T10:07:03.601Z,20
2019-05-10T10:08:09.134Z,20
2019-05-10T10:09:07.261Z,20
2019-05-10T10:10:07.373Z,20
2019-05-10T10:11:13.332Z,20
2019-05-10T10:12:08.471Z,25
2019-05-10T10:13:13.348Z,25
2019-05-10T10:14:10.610Z,25
2019-05-10T10:15:18.826Z,25
2019-05-10T10:16:14.704Z,25
2019-05-10T10:17:17.327Z,25
2019-05-10T10:18:21.373Z,25
2019-05-10T10:19:20.325Z,20
2019-05-10T10:20:19.027Z,20
2019-05-10T10:21:30.598Z,20
2019-05-10T10:22:21.169Z,20
2019-05-10T10:23:24.574Z,20
2019-05-10T10:24:23.323Z,20
2019-05-10T10:25:26.909Z,15
2019-05-10T10:26:26.879Z,15
2019-05-10T10:27:34.327Z,15
2019-05-10T10:28:28.748Z,15
2019-05-10T10:29:34.101Z,15
2019-05-10T10:30:31.539Z,15
2019-05-10T10:31:33.540Z,15
2019-05-10T10:32:34.949Z,15
2019-05-10T10:33:37.768Z,15
2019-05-10T10:34:38.763Z,20
2019-05-10T10:35:38.084Z,20
2019-05-10T10:36:42.787Z,20
2019-05-10T10:37:40.253Z,25
2019-05-10T10:38:45.362Z,25
2019-05-10T10:39:42.392Z,25
2019-05-10T10:40:44.971Z,25
2019-05-10T10:41:44.532Z,30
2019-05-10T10:42:47.223Z,30
2019-05-10T10:43:48.412Z,30
2019-05-10T10:44:48.303Z,30
2019-05-10T10:45:48.824Z,30
2019-05-10T10:46:49.398Z,30
2019-05-10T10:47:49.997Z,30
2019-05-10T10:48:51.470Z,30
2019-05-10T10:49:52.085Z,30
2019-05-10T10:50:55.674Z,30
2019-05-10T10:51:54.222Z,30
2019-05-10T10:52:54.798Z,25
2019-05-10T10:53:58.121Z,25
2019-05-10T10:54:57.715Z,20
2019-05-10T10:56:03.561Z,20
2019-05-10T10:56:59.842Z,20
2019-05-10T10:58:00.414Z,20
2019-05-10T10:59:00.988Z,20
2019-05-10T11:00:01.560Z,20
2019-05-10T11:01:07.756Z,15
2019-05-10T11:02:29.068Z,15
2019-05-10T11:03:05.274Z,15
2019-05-10T11:04:08.261Z,15
2019-05-10T11:05:07.427Z,15
2019-05-10T11:06:08.010Z,15
2019-05-10T11:07:10.721Z,15
2019-05-10T11:08:11.149Z,15
2019-05-10T11:09:10.731Z,15
2019-05-10T11:10:21.582Z,15
2019-05-10T11:11:12.872Z,15
2019-05-10T11:12:14.601Z,15
2019-05-10T11:13:23.764Z,15
2019-05-10T11:14:16.611Z,15
2019-05-10T11:15:23.120Z,20
2019-05-10T11:16:20.668Z,20
2019-05-10T11:17:19.330Z,20
2019-05-10T11:18:21.607Z,20
2019-05-10T11:19:20.588Z,25
2019-05-10T11:20:21.609Z,25
2019-05-10T11:21:23.358Z,25
2019-05-10T11:22:23.212Z,25
2019-05-10T11:23:33.120Z,25
2019-05-10T11:24:25.352Z,20
2019-05-10T11:25:25.923Z,20
2019-05-10T11:26:31.818Z,20
2019-05-10T11:27:27.078Z,20
2019-05-10T11:28:31.999Z,20
2019-05-10T11:29:30.847Z,25
2019-05-10T11:30:32.568Z,25
2019-05-10T11:31:32.352Z,30
2019-05-10T11:32:32.929Z,30
2019-05-10T11:33:33.892Z,35
2019-05-10T11:34:37.380Z,30
2019-05-10T11:35:35.648Z,30
2019-05-10T11:36:40.424Z,30
2019-05-10T11:37:37.789Z,35
2019-05-10T11:38:38.373Z,30
2019-05-10T11:39:45.290Z,35
2019-05-10T11:40:41.944Z,35
2019-05-10T11:41:41.983Z,40
2019-05-10T11:42:46.931Z,45
2019-05-10T11:43:44.126Z,50
2019-05-10T11:44:50.203Z,45
2019-05-10T11:45:46.275Z,40
2019-05-10T11:46:46.848Z,40
2019-05-10T11:47:47.956Z,45
2019-05-10T11:48:51.066Z,40
2019-05-10T11:49:50.960Z,45
2019-05-10T11:50:51.572Z,40
2019-05-10T11:52:53.670Z,40
2019-05-10T11:54:55.826Z,30
2019-05-10T11:55:56.415Z,40
2019-05-10T11:56:58.565Z,40
2019-05-10T11:59:02.153Z,30
2019-05-10T11:59:04.404Z,30
2019-05-10T11:59:04.537Z,40
2019-05-10T11:59:05.080Z,35
2019-05-10T12:00:00.701Z,30
2019-05-10T12:01:12.836Z,25
2019-05-10T12:02:06.117Z,25
2019-05-10T12:03:11.341Z,25
2019-05-10T12:04:05.246Z,25
2019-05-10T12:05:16.674Z,25
2019-05-10T12:06:09.100Z,25
2019-05-10T12:07:12.704Z,30
2019-05-10T12:08:13.058Z,30
2019-05-10T12:09:12.621Z,30
2019-05-10T12:10:20.656Z,30
2019-05-10T12:12:16.312Z,30
2019-05-10T12:13:20.828Z,30
2019-05-10T12:14:18.454Z,30
2019-05-10T12:15:25.052Z,35
2019-05-10T12:16:21.450Z,30
2019-05-10T12:17:23.902Z,30
2019-05-10T12:18:26.945Z,25
2019-05-10T12:19:24.313Z,25
2019-05-10T12:20:39.126Z,25
2019-05-10T12:21:26.339Z,25
2019-05-10T12:23:31.226Z,20
2019-05-10T12:24:46.235Z,20
2019-05-10T12:25:47.045Z,25
2019-05-10T12:26:50.013Z,25
2019-05-10T12:26:59.026Z,30
2019-05-10T12:27:44.071Z,25
2019-05-10T12:28:35.836Z,25
2019-05-10T12:29:36.439Z,25
2019-05-10T12:30:37.324Z,25
2019-05-10T12:31:37.853Z,25
2019-05-10T12:32:54.690Z,25
2019-05-10T12:33:42.940Z,20
2019-05-10T12:34:45.922Z,20
2019-05-10T12:35:47.144Z,20
2019-05-10T12:36:43.718Z,15
2019-05-10T12:37:46.170Z,15
2019-05-10T12:38:44.872Z,15
2019-05-10T12:39:45.446Z,15
2019-05-10T12:40:46.083Z,15
2019-05-10T12:41:49.774Z,15
2019-05-10T12:42:48.172Z,15
2019-05-10T12:43:51.487Z,15
2019-05-10T12:44:51.444Z,15
2019-05-10T12:45:51.821Z,15
2019-05-10T12:46:54.255Z,15
2019-05-10T12:47:53.040Z,15
2019-05-10T12:48:53.614Z,15
2019-05-10T12:50:02.196Z,15
2019-05-10T12:50:58.512Z,15
2019-05-10T12:51:55.359Z,15
2019-05-10T12:53:03.197Z,15
2019-05-10T12:53:57.513Z,15
2019-05-10T12:54:58.101Z,15
2019-05-10T12:55:58.661Z,15
2019-05-10T12:56:59.236Z,15
2019-05-10T12:57:59.808Z,15
2019-05-10T12:59:00.383Z,15
2019-05-10T13:00:00.955Z,15
2019-05-10T13:01:01.534Z,15
2019-05-10T13:02:04.381Z,15
2019-05-10T13:03:12.160Z,15
2019-05-10T13:04:13.743Z,20
2019-05-10T13:05:04.836Z,20
2019-05-10T13:06:05.425Z,20
2019-05-10T13:07:05.998Z,25
2019-05-10T13:08:06.576Z,25
2019-05-10T13:09:07.152Z,40
2019-05-10T13:10:08.842Z,30
2019-05-10T13:11:09.292Z,35
2019-05-10T13:12:09.864Z,35
2019-05-10T13:13:10.437Z,35
2019-05-10T13:14:11.011Z,35
2019-05-10T13:15:11.587Z,35
2019-05-10T13:16:12.163Z,35
2019-05-10T13:17:16.716Z,35
2019-05-10T13:18:13.321Z,35
2019-05-10T13:19:19.601Z,35
2019-05-10T13:20:15.463Z,35
2019-05-10T13:21:20.703Z,35
2019-05-10T13:22:17.607Z,55
2019-05-10T13:23:18.538Z,40
2019-05-10T13:24:19.113Z,40
2019-05-10T13:25:19.683Z,40
2019-05-10T13:26:20.264Z,45
2019-05-10T13:27:20.831Z,35
2019-05-10T13:28:21.406Z,45
2019-05-10T13:29:21.980Z,50
2019-05-10T13:30:27.050Z,50
2019-05-10T13:31:24.125Z,50
2019-05-10T13:32:24.700Z,30
2019-05-10T13:33:28.935Z,20
2019-05-10T13:34:26.841Z,15
2019-05-10T13:35:27.426Z,15
2019-05-10T13:36:30.651Z,15
2019-05-10T13:37:28.582Z,15
2019-05-10T13:38:29.180Z,15
2019-05-10T13:39:29.750Z,15
2019-05-10T13:40:30.325Z,15
2019-05-10T13:41:30.897Z,15
2019-05-10T13:42:36.761Z,15
2019-05-10T13:43:32.053Z,15
2019-05-10T13:44:36.945Z,15
2019-05-10T13:45:37.569Z,15
2019-05-10T13:46:35.766Z,15
2019-05-10T13:47:36.339Z,20
2019-05-10T13:48:36.916Z,20
2019-05-10T13:49:37.488Z,25
2019-05-10T13:50:38.062Z,25
2019-05-10T13:51:38.638Z,30
2019-05-10T13:52:41.216Z,35
2019-05-10T13:53:40.780Z,35
2019-05-10T13:54:41.358Z,50
2019-05-10T13:55:41.932Z,40
2019-05-10T13:56:45.288Z,55
2019-05-10T13:57:44.090Z,50
2019-05-10T13:58:44.664Z,50
2019-05-10T13:59:49.070Z,35
2019-05-10T14:00:46.812Z,30
2019-05-10T14:01:49.522Z,35
2019-05-10T14:02:48.963Z,40
2019-05-10T14:04:00.042Z,30
2019-05-10T14:04:51.110Z,25
2019-05-10T14:05:51.684Z,25
2019-05-10T14:06:52.659Z,25
2019-05-10T14:07:53.460Z,25
2019-05-10T14:08:53.816Z,35
2019-05-10T14:09:54.419Z,30
2019-05-10T14:10:55.860Z,30
2019-05-10T14:11:55.563Z,25
2019-05-10T14:13:02.154Z,25
2019-05-10T14:13:57.720Z,25
2019-05-10T14:15:02.426Z,25
2019-05-10T14:15:58.887Z,30
2019-05-10T14:16:59.463Z,30
2019-05-10T14:18:00.051Z,25
2019-05-10T14:19:00.624Z,25
2019-05-10T14:20:01.211Z,25
2019-05-10T14:21:01.785Z,25
2019-05-10T14:22:02.401Z,30
2019-05-10T14:23:02.946Z,25
2019-05-10T14:24:03.531Z,25
2019-05-10T14:25:04.108Z,20
2019-05-10T14:26:09.154Z,20
2019-05-10T14:27:05.275Z,20
2019-05-10T14:28:09.565Z,20
2019-05-10T14:29:06.431Z,20
2019-05-10T14:30:12.575Z,20
2019-05-10T14:31:08.573Z,20
2019-05-10T14:32:09.164Z,20
2019-05-10T14:33:14.825Z,20
2019-05-10T14:34:15.395Z,20
2019-05-10T14:36:13.443Z,20
2019-05-10T14:37:19.201Z,20
2019-05-10T14:38:15.586Z,15
2019-05-10T14:39:16.158Z,15
2019-05-10T14:40:26.987Z,15
2019-05-10T14:41:18.314Z,15
2019-05-10T14:42:23.916Z,15
2019-05-10T14:43:20.462Z,15
2019-05-10T14:44:21.034Z,15
2019-05-10T14:45:21.608Z,15
2019-05-10T14:46:22.194Z,15
2019-05-10T14:47:22.768Z,15
2019-05-10T14:48:28.869Z,15
2019-05-10T14:49:23.924Z,20
2019-05-10T14:50:26.168Z,20
2019-05-10T14:51:39.019Z,20
2019-05-10T14:52:27.586Z,20
2019-05-10T14:53:28.164Z,20
2019-05-10T14:54:42.737Z,20
2019-05-10T14:55:34.583Z,20
2019-05-10T14:56:30.892Z,20
2019-05-10T14:57:31.466Z,20
2019-05-10T14:58:32.044Z,20
2019-05-10T14:59:32.616Z,20
2019-05-10T15:00:33.218Z,15
2019-05-10T15:01:36.823Z,15
2019-05-10T15:02:34.348Z,15
2019-05-10T15:03:44.408Z,15
2019-05-10T15:04:46.471Z,15
2019-05-10T15:05:38.074Z,15
2019-05-10T15:06:39.007Z,10
2019-05-10T15:07:39.619Z,10
2019-05-10T15:08:40.193Z,10
2019-05-10T15:09:40.769Z,10
2019-05-10T15:10:41.819Z,10
2019-05-10T15:11:42.374Z,15
2019-05-10T15:12:42.948Z,15
2019-05-10T15:13:43.526Z,15
2019-05-10T15:14:44.108Z,15
2019-05-10T15:15:44.683Z,15
2019-05-10T15:16:45.258Z,15
2019-05-10T15:17:45.835Z,15
2019-05-10T15:18:46.408Z,15
2019-05-10T15:19:56.530Z,15
2019-05-10T15:20:48.550Z,15
2019-05-10T15:21:49.128Z,15
2019-05-10T15:22:49.703Z,15
2019-05-10T15:23:50.305Z,15
2019-05-10T15:24:51.848Z,15
2019-05-10T15:25:57.351Z,15
2019-05-10T15:26:53.993Z,15
2019-05-10T15:27:59.904Z,15
2019-05-10T15:28:56.137Z,15
2019-05-10T15:29:58.473Z,15
2019-05-10T15:30:58.291Z,15
2019-05-10T15:31:58.865Z,15
2019-05-10T15:32:59.439Z,15
2019-05-10T15:34:04.794Z,15
2019-05-10T15:35:06.971Z,15
2019-05-10T15:36:02.167Z,15
2019-05-10T15:37:09.242Z,15
2019-05-10T15:38:03.326Z,15
2019-05-10T15:39:03.920Z,15
2019-05-10T15:40:06.038Z,15
2019-05-10T15:41:06.056Z,15
2019-05-10T15:42:06.631Z,15
2019-05-10T15:43:10.586Z,15
2019-05-10T15:44:08.774Z,15
2019-05-10T15:45:14.254Z,15
2019-05-10T15:46:10.917Z,15
2019-05-10T15:47:14.410Z,15
2019-05-10T15:48:12.103Z,10
2019-05-10T15:49:13.632Z,10
2019-05-10T15:50:14.256Z,10
2019-05-10T15:51:16.740Z,10
2019-05-10T15:52:17.787Z,10
2019-05-10T15:53:19.630Z,10
2019-05-10T15:54:18.547Z,5
2019-05-10T15:55:26.815Z,5
2019-05-10T15:56:20.688Z,5
2019-05-10T15:57:22.039Z,5
2019-05-10T15:58:21.845Z,5
2019-05-10T15:59:22.418Z,5
2019-05-10T16:00:25.244Z,5
2019-05-10T16:01:27.442Z,5
2019-05-10T16:02:26.126Z,5
2019-05-10T16:03:26.701Z,5
2019-05-10T16:04:27.294Z,5
2019-05-10T16:05:42.388Z,5
2019-05-10T16:06:32.482Z,5
2019-05-10T16:07:30.017Z,5
2019-05-10T16:08:31.940Z,0
2019-05-10T16:09:31.170Z,0
2019-05-10T16:10:38.661Z,0
2019-05-10T16:11:33.307Z,0
2019-05-10T16:12:37.743Z,0
2019-05-10T16:13:35.450Z,0
2019-05-10T16:14:39.344Z,0
2019-05-10T16:15:36.602Z,0
2019-05-10T16:16:39.711Z,0
2019-05-10T16:17:38.741Z,0
2019-05-10T16:18:40.529Z,0
2019-05-10T16:19:40.882Z,5
2019-05-10T16:20:41.457Z,5
2019-05-10T16:21:46.552Z,5
2019-05-10T16:22:43.597Z,5
2019-05-10T16:23:46.787Z,5
2019-05-10T16:24:45.738Z,5
2019-05-10T16:25:48.545Z,5
2019-05-10T16:26:47.930Z,5
2019-05-10T16:27:48.502Z,5
2019-05-10T16:28:53.094Z,5
2019-05-10T16:29:50.643Z,10
2019-05-10T16:30:51.217Z,10
2019-05-10T16:31:51.789Z,10
2019-05-10T16:32:52.364Z,10
2019-05-10T16:33:53.490Z,10
2019-05-10T16:34:54.510Z,10
2019-05-10T16:35:55.085Z,10
2019-05-10T16:36:55.658Z,10
2019-05-10T16:37:56.233Z,10
2019-05-10T16:39:00.729Z,15
2019-05-10T16:39:57.392Z,15
2019-05-10T16:41:00.261Z,15
2019-05-10T16:41:58.556Z,20
2019-05-10T16:42:59.148Z,20
2019-05-10T16:44:00.177Z,20
2019-05-10T16:45:00.802Z,20
2019-05-10T16:46:01.383Z,20
2019-05-10T16:47:01.972Z,15
2019-05-10T16:48:05.556Z,15
2019-05-10T16:49:04.115Z,15
2019-05-10T16:50:04.698Z,10
2019-05-10T16:51:09.857Z,10
2019-05-10T16:52:06.842Z,10
2019-05-10T16:53:08.213Z,10
2019-05-10T16:54:10.589Z,10
2019-05-10T16:55:10.341Z,10
2019-05-10T16:56:13.317Z,10
2019-05-10T16:57:11.498Z,10
2019-05-10T16:58:15.357Z,10
2019-05-10T16:59:13.640Z,10
2019-05-10T17:00:14.214Z,10
2019-05-10T17:01:18.570Z,10
2019-05-10T17:02:15.368Z,10
2019-05-10T17:03:18.294Z,10
2019-05-10T17:04:17.518Z,15
2019-05-10T17:05:18.083Z,15
2019-05-10T17:06:18.659Z,15
2019-05-10T17:07:20.598Z,20
2019-05-10T17:08:20.802Z,15
2019-05-10T17:09:21.378Z,15
2019-05-10T17:10:26.957Z,15
2019-05-10T17:11:23.519Z,15
2019-05-10T17:12:27.593Z,15
2019-05-10T17:13:25.664Z,15
2019-05-10T17:14:26.239Z,15
2019-05-10T17:15:26.812Z,15
2019-05-10T17:16:27.409Z,15
2019-05-10T17:17:31.401Z,15
2019-05-10T17:18:29.543Z,15
2019-05-10T17:19:34.230Z,15
2019-05-10T17:20:30.700Z,20
2019-05-10T17:21:31.273Z,20
2019-05-10T17:22:31.938Z,25
2019-05-10T17:23:32.439Z,25
2019-05-10T17:24:33.015Z,35
2019-05-10T17:25:35.451Z,25